createdAt,value
2022-11-16T00:01:48.797Z,0.98
2022-11-16T00:04:16.108Z,1.65
2022-11-16T00:06:43.498Z,1.55
2022-11-16T00:09:23.321Z,1.83
2022-11-16T00:11:55.837Z,1.42
2022-11-16T00:14:25.631Z,1.45
2022-11-16T00:16:53.112Z,0.85
2022-11-16T00:19:20.574Z,1.27
2022-11-16T00:21:47.954Z,1.13
2022-11-16T00:24:17.067Z,1.10
2022-11-16T00:26:44.666Z,0.70
2022-11-16T00:29:21.889Z,0.52
2022-11-16T00:31:50.057Z,1.13
2022-11-16T00:34:18.415Z,1.10
2022-11-16T00:36:46.326Z,0.70
2022-11-16T00:39:15.236Z,0.80
2022-11-16T00:41:43.581Z,1.25
2022-11-16T00:44:11.480Z,1.23
2022-11-16T00:46:39.203Z,0.50
2022-11-16T00:49:06.995Z,0.70
2022-11-16T00:51:35.877Z,0.77
2022-11-16T00:54:05.056Z,1.33
2022-11-16T00:56:35.932Z,1.00
2022-11-16T00:59:03.456Z,0.90
2022-11-16T01:01:31.126Z,0.82
2022-11-16T01:03:58.859Z,0.90
2022-11-16T01:06:26.204Z,0.40
2022-11-16T01:08:53.541Z,0.50
2022-11-16T01:11:42.930Z,1.10
2022-11-16T01:14:10.368Z,0.73
2022-11-16T01:16:37.751Z,0.50
2022-11-16T01:19:05.453Z,0.30
2022-11-16T01:21:33.421Z,0.90
2022-11-16T01:24:00.927Z,0.60
2022-11-16T01:26:28.331Z,0.35
2022-11-16T01:28:57.886Z,0.57
2022-11-16T01:31:25.409Z,0.60
2022-11-16T01:33:54.136Z,0.60
2022-11-16T01:36:27.409Z,0.60
2022-11-16T01:38:56.935Z,0.65
2022-11-16T01:41:27.945Z,0.73
2022-11-16T01:44:02.402Z,0.63
2022-11-16T01:46:35.884Z,0.63
2022-11-16T01:49:09.789Z,0.93
2022-11-16T01:51:37.974Z,0.68
2022-11-16T01:54:09.884Z,0.55
2022-11-16T01:56:42.098Z,0.77
2022-11-16T01:59:13.933Z,1.13
2022-11-16T02:01:42.409Z,0.75
2022-11-16T02:04:14.186Z,1.23
2022-11-16T02:06:59.517Z,1.10
2022-11-16T02:09:55.020Z,1.08
2022-11-16T02:12:51.737Z,1.58
2022-11-16T02:15:26.322Z,1.33
2022-11-16T02:18:06.813Z,0.90
2022-11-16T02:20:49.157Z,1.77
2022-11-16T02:23:35.346Z,1.15
2022-11-16T02:26:23.477Z,1.00
2022-11-16T02:29:15.599Z,0.90
2022-11-16T02:31:58.686Z,1.20
2022-11-16T02:34:31.138Z,0.80
2022-11-16T02:37:01.274Z,1.58
2022-11-16T02:39:31.812Z,1.20
2022-11-16T02:42:01.379Z,1.25
2022-11-16T02:44:36.849Z,0.93
2022-11-16T02:47:12.547Z,1.10
2022-11-16T02:49:44.211Z,1.10
2022-11-16T02:52:14.631Z,1.73
2022-11-16T02:54:42.058Z,1.20
2022-11-16T02:57:09.301Z,0.88
2022-11-16T02:59:44.089Z,0.50
2022-11-16T03:02:20.357Z,1.17
2022-11-16T03:04:55.268Z,0.82
2022-11-16T03:07:28.314Z,1.23
2022-11-16T03:09:57.969Z,0.98
2022-11-16T03:12:31.492Z,0.90
2022-11-16T03:15:04.611Z,0.93
2022-11-16T03:17:38.534Z,1.20
2022-11-16T03:20:16.013Z,0.55
2022-11-16T03:22:43.508Z,0.80
2022-11-16T03:25:13.954Z,1.27
2022-11-16T03:27:48.349Z,0.82
2022-11-16T03:30:29.411Z,1.48
2022-11-16T03:33:19.292Z,0.82
2022-11-16T03:36:05.441Z,0.77
2022-11-16T03:38:36.736Z,1.73
2022-11-16T03:41:08.405Z,1.50
2022-11-16T03:43:38.030Z,1.70
2022-11-16T03:46:06.322Z,1.77
2022-11-16T03:48:38.837Z,0.85
2022-11-16T03:51:13.215Z,1.45
2022-11-16T03:53:41.324Z,1.85
2022-11-16T03:56:10.432Z,1.02
2022-11-16T03:58:39.121Z,0.85
2022-11-16T04:01:06.629Z,0.95
2022-11-16T04:03:34.716Z,1.13
2022-11-16T04:06:20.760Z,1.13
2022-11-16T04:09:09.427Z,0.82
2022-11-16T04:11:57.248Z,0.95
2022-11-16T04:14:44.727Z,1.10
2022-11-16T04:17:35.639Z,1.15
2022-11-16T04:20:23.164Z,0.70
2022-11-16T04:23:12.085Z,0.88
2022-11-16T04:25:41.795Z,1.02
2022-11-16T04:28:17.799Z,1.48
2022-11-16T04:31:12.246Z,1.15
2022-11-16T04:34:02.263Z,0.95
2022-11-16T04:36:48.296Z,0.95
2022-11-16T04:39:15.722Z,0.63
2022-11-16T04:42:02.860Z,0.85
2022-11-16T04:44:54.194Z,0.80
2022-11-16T04:47:23.797Z,1.60
2022-11-16T04:49:51.068Z,1.27
2022-11-16T04:52:18.554Z,1.00
2022-11-16T04:54:46.052Z,0.70
2022-11-16T04:57:14.021Z,0.90
2022-11-16T04:59:44.248Z,0.80
2022-11-16T05:02:11.674Z,0.73
2022-11-16T05:04:46.045Z,0.93
2022-11-16T05:07:14.904Z,0.80
2022-11-16T05:09:46.532Z,0.75
2022-11-16T05:12:26.310Z,0.73
2022-11-16T05:14:57.564Z,0.80
2022-11-16T05:17:28.349Z,0.77
2022-11-16T05:20:16.315Z,0.85
2022-11-16T05:22:59.214Z,1.02
2022-11-16T05:25:36.249Z,0.70
2022-11-16T05:28:06.437Z,0.70
2022-11-16T05:30:37.886Z,0.70
2022-11-16T05:33:05.399Z,0.70
2022-11-16T05:35:37.163Z,0.80
2022-11-16T05:38:04.480Z,0.70
2022-11-16T05:40:38.737Z,0.80
2022-11-16T05:43:06.278Z,1.23
2022-11-16T05:45:39.014Z,1.50
2022-11-16T05:48:08.667Z,1.48
2022-11-16T05:50:41.351Z,0.95
2022-11-16T05:53:19.677Z,0.80
2022-11-16T05:55:47.824Z,1.08
2022-11-16T05:58:15.272Z,1.27
2022-11-16T06:00:43.000Z,0.63
2022-11-16T06:03:12.029Z,0.40
2022-11-16T06:05:40.856Z,0.88
2022-11-16T06:08:11.087Z,0.93
2022-11-16T06:10:38.404Z,1.20
2022-11-16T06:13:06.372Z,1.10
2022-11-16T06:15:37.460Z,0.70
2022-11-16T06:18:05.507Z,0.90
2022-11-16T06:20:33.641Z,0.90
2022-11-16T06:23:00.979Z,1.27
2022-11-16T06:25:30.819Z,1.00
2022-11-16T06:27:59.554Z,0.82
2022-11-16T06:30:28.673Z,1.02
2022-11-16T06:32:56.428Z,2.72
2022-11-16T06:35:23.695Z,1.77
2022-11-16T06:37:51.141Z,1.25
2022-11-16T06:40:18.639Z,0.70
2022-11-16T06:42:45.994Z,1.23
2022-11-16T06:45:14.616Z,0.98
2022-11-16T06:47:47.107Z,1.05
2022-11-16T06:50:14.752Z,1.52
2022-11-16T06:52:42.026Z,1.23
2022-11-16T06:55:09.674Z,1.25
2022-11-16T06:57:39.228Z,1.13
2022-11-16T07:00:08.869Z,1.05
2022-11-16T07:02:38.308Z,1.08
2022-11-16T07:05:07.796Z,1.42
2022-11-16T07:07:35.226Z,1.75
2022-11-16T07:10:03.172Z,1.65
2022-11-16T07:12:31.764Z,1.30
2022-11-16T07:14:59.975Z,1.33
2022-11-16T07:17:33.101Z,1.45
2022-11-16T07:20:00.363Z,2.38
2022-11-16T07:22:28.632Z,1.65
2022-11-16T07:24:55.947Z,1.30
2022-11-16T07:27:23.856Z,1.40
2022-11-16T07:29:52.619Z,1.90
2022-11-16T07:32:39.897Z,1.50
2022-11-16T07:35:13.257Z,1.38
2022-11-16T07:37:40.966Z,1.73
2022-11-16T07:40:09.377Z,1.48
2022-11-16T07:42:38.622Z,3.13
2022-11-16T07:45:20.699Z,1.50
2022-11-16T07:47:53.707Z,2.20
2022-11-16T07:50:43.781Z,1.20
2022-11-16T07:53:11.304Z,1.40
2022-11-16T07:55:39.810Z,1.77
2022-11-16T07:58:07.117Z,2.00
2022-11-16T08:00:34.395Z,1.50
2022-11-16T08:03:11.351Z,1.15
2022-11-16T08:05:39.068Z,1.67
2022-11-16T08:08:06.973Z,1.52
2022-11-16T08:10:36.690Z,1.38
2022-11-16T08:13:04.860Z,1.50
2022-11-16T08:15:32.074Z,2.70
2022-11-16T08:18:02.528Z,2.25
2022-11-16T08:20:30.180Z,2.28
2022-11-16T08:23:01.192Z,3.28
2022-11-16T08:25:32.383Z,1.45
2022-11-16T08:27:59.612Z,1.52
2022-11-16T08:30:27.546Z,1.60
2022-11-16T08:32:56.608Z,1.50
2022-11-16T08:35:23.908Z,1.20
2022-11-16T08:37:51.205Z,1.10
2022-11-16T08:40:18.767Z,1.20
2022-11-16T08:42:47.447Z,1.63
2022-11-16T08:45:15.331Z,2.13
2022-11-16T08:47:42.889Z,1.77
2022-11-16T08:50:10.320Z,1.65
2022-11-16T08:52:38.300Z,1.40
2022-11-16T08:55:06.680Z,1.17
2022-11-16T08:57:34.018Z,1.05
2022-11-16T09:00:07.434Z,1.35
2022-11-16T09:02:34.916Z,1.27
2022-11-16T09:05:02.406Z,1.50
2022-11-16T09:07:29.819Z,1.40
2022-11-16T09:09:57.452Z,1.27
2022-11-16T09:12:24.813Z,1.67
2022-11-16T09:14:52.061Z,1.65
2022-11-16T09:17:23.125Z,1.40
2022-11-16T09:19:50.734Z,1.35
2022-11-16T09:22:18.061Z,1.45
2022-11-16T09:24:45.271Z,1.83
2022-11-16T09:27:12.488Z,1.27
2022-11-16T09:29:39.711Z,1.35
2022-11-16T09:32:07.114Z,1.08
2022-11-16T09:34:35.092Z,1.40
2022-11-16T09:37:02.362Z,1.42
2022-11-16T09:39:32.545Z,1.35
2022-11-16T09:42:37.131Z,1.10
2022-11-16T09:45:14.709Z,1.13
2022-11-16T09:47:51.765Z,1.23
2022-11-16T09:50:46.460Z,0.80
2022-11-16T09:53:20.287Z,0.93
2022-11-16T09:55:53.657Z,0.85
2022-11-16T09:58:35.047Z,1.23
2022-11-16T10:01:23.867Z,1.30
2022-11-16T10:03:59.328Z,1.20
2022-11-16T10:06:38.389Z,1.88
2022-11-16T10:09:05.901Z,0.80
2022-11-16T10:11:36.189Z,1.10
2022-11-16T10:14:12.645Z,1.20
2022-11-16T10:17:07.151Z,1.52
2022-11-16T10:19:49.128Z,1.15
2022-11-16T10:22:19.379Z,1.55
2022-11-16T10:25:01.096Z,0.98
2022-11-16T10:27:34.916Z,0.98
2022-11-16T10:30:11.085Z,0.60
2022-11-16T10:32:47.578Z,1.02
2022-11-16T10:35:35.957Z,0.77
2022-11-16T10:38:25.403Z,0.90
2022-11-16T10:40:57.808Z,0.93
2022-11-16T10:43:28.634Z,0.98
2022-11-16T10:46:18.056Z,0.85
2022-11-16T10:49:03.834Z,0.75
2022-11-16T10:51:31.142Z,0.52
2022-11-16T10:53:58.712Z,1.33
2022-11-16T10:56:37.544Z,0.93
2022-11-16T10:59:07.554Z,1.65
2022-11-16T11:01:35.979Z,0.85
2022-11-16T11:04:27.081Z,0.80
2022-11-16T11:06:58.393Z,0.98
2022-11-16T11:09:32.908Z,1.30
2022-11-16T11:12:37.950Z,2.38
2022-11-16T11:15:11.124Z,1.63
2022-11-16T11:17:41.731Z,1.10
2022-11-16T11:20:23.268Z,0.93
2022-11-16T11:22:56.074Z,1.05
2022-11-16T11:25:29.001Z,1.00
2022-11-16T11:28:18.051Z,1.83
2022-11-16T11:31:04.061Z,1.55
2022-11-16T11:33:39.058Z,1.38
2022-11-16T11:36:07.802Z,0.70
2022-11-16T11:38:54.354Z,0.80
2022-11-16T11:41:21.831Z,0.73
2022-11-16T11:44:19.292Z,0.90
2022-11-16T11:47:50.334Z,1.03
2022-11-16T11:50:02.933Z,0.87
2022-11-16T11:52:42.545Z,0.98
2022-11-16T11:55:16.720Z,0.98
2022-11-16T11:57:47.564Z,1.00
2022-11-16T12:00:15.681Z,1.92
2022-11-16T12:03:07.718Z,1.10
2022-11-16T12:05:40.893Z,0.98
2022-11-16T12:08:43.260Z,0.77
2022-11-16T12:11:47.440Z,1.20
2022-11-16T12:14:26.680Z,0.90
2022-11-16T12:16:53.848Z,1.10
2022-11-16T12:19:38.916Z,1.05
2022-11-16T12:22:17.956Z,0.80
2022-11-16T12:25:07.917Z,1.33
2022-11-16T12:27:50.199Z,1.10
2022-11-16T12:30:23.608Z,1.80
2022-11-16T12:33:08.701Z,0.95
2022-11-16T12:35:49.313Z,1.33
2022-11-16T12:38:27.491Z,0.95
2022-11-16T12:41:12.881Z,0.95
2022-11-16T12:43:59.496Z,1.00
2022-11-16T12:46:53.901Z,1.38
2022-11-16T12:49:46.921Z,1.10
2022-11-16T12:52:33.414Z,1.17
2022-11-16T12:55:28.385Z,1.58
2022-11-16T12:58:07.747Z,1.35
2022-11-16T13:01:04.204Z,1.63
2022-11-16T13:03:53.724Z,1.80
2022-11-16T13:06:30.648Z,1.70
2022-11-16T13:09:07.488Z,1.90
2022-11-16T13:11:42.992Z,2.38
2022-11-16T13:14:28.289Z,3.35
2022-11-16T13:17:00.540Z,2.30
2022-11-16T13:19:28.625Z,1.63
2022-11-16T13:22:07.806Z,2.70
2022-11-16T13:25:05.674Z,1.38
2022-11-16T13:27:49.442Z,1.50
2022-11-16T13:30:22.064Z,2.60
2022-11-16T13:33:14.506Z,2.10
2022-11-16T13:35:41.934Z,4.78
2022-11-16T13:38:13.512Z,2.50
2022-11-16T13:40:41.733Z,2.03
2022-11-16T13:43:11.951Z,2.03
2022-11-16T13:45:48.389Z,2.60
2022-11-16T13:48:20.259Z,4.73
2022-11-16T13:50:54.322Z,1.67
2022-11-16T13:56:51.195Z,1.52
2022-11-16T13:59:26.720Z,1.60
2022-11-16T14:02:02.854Z,1.67
2022-11-16T14:04:41.918Z,1.48
2022-11-16T14:07:30.762Z,2.22
2022-11-16T14:09:58.182Z,1.55
2022-11-16T14:12:37.696Z,1.67
2022-11-16T14:15:15.889Z,1.80
2022-11-16T14:17:53.108Z,1.85
2022-11-16T14:23:39.681Z,1.75
2022-11-16T14:26:34.837Z,1.85
2022-11-16T14:29:26.253Z,2.38
2022-11-16T14:31:58.749Z,1.63
2022-11-16T14:34:43.304Z,2.13
2022-11-16T14:37:28.318Z,2.20
2022-11-16T14:40:17.865Z,1.58
2022-11-16T14:43:15.387Z,1.85
2022-11-16T14:45:39.504Z,2.50
2022-11-16T14:48:18.193Z,1.80
2022-11-16T14:51:06.712Z,1.80
2022-11-16T14:53:39.290Z,1.60
2022-11-16T14:56:09.471Z,1.83
2022-11-16T14:58:37.108Z,2.30
2022-11-16T15:01:07.908Z,1.17
2022-11-16T15:03:42.259Z,2.28
2022-11-16T15:06:09.633Z,1.92
2022-11-16T15:08:47.211Z,2.85
2022-11-16T15:11:24.487Z,3.45
2022-11-16T15:16:20.422Z,2.88
2022-11-16T15:19:02.080Z,2.92
2022-11-16T15:21:29.529Z,2.72
2022-11-16T15:26:44.772Z,2.90
2022-11-16T15:29:18.230Z,4.45
2022-11-16T15:31:48.018Z,3.80
2022-11-16T15:34:19.897Z,3.25
2022-11-16T15:36:48.632Z,3.28
2022-11-16T15:39:21.900Z,3.42
2022-11-16T15:41:50.135Z,3.17
2022-11-16T15:44:21.021Z,4.72
2022-11-16T15:46:54.401Z,4.10
2022-11-16T15:49:30.418Z,3.45
2022-11-16T15:51:59.142Z,3.85
2022-11-16T15:54:54.878Z,5.45
2022-11-16T15:57:23.762Z,5.18
2022-11-16T15:59:56.328Z,4.28
2022-11-16T16:02:30.190Z,4.25
2022-11-16T16:04:57.592Z,4.32
2022-11-16T16:07:42.953Z,3.42
2022-11-16T16:10:25.293Z,4.45
2022-11-16T16:12:55.130Z,2.80
2022-11-16T16:15:30.871Z,3.45
2022-11-16T16:18:00.023Z,3.70
2022-11-16T16:20:32.141Z,3.70
2022-11-16T16:23:25.698Z,2.80
2022-11-16T16:25:52.968Z,2.85
2022-11-16T16:28:20.225Z,3.50
2022-11-16T16:30:50.872Z,3.38
2022-11-16T16:33:21.968Z,3.50
2022-11-16T16:35:52.012Z,4.32
2022-11-16T16:38:19.419Z,3.95
2022-11-16T16:40:46.848Z,3.88
2022-11-16T16:43:14.572Z,3.40
2022-11-16T16:45:43.843Z,2.88
2022-11-16T16:48:12.576Z,4.35
2022-11-16T16:50:40.435Z,4.25
2022-11-16T16:53:12.006Z,9.00
2022-11-16T16:55:39.579Z,4.35
2022-11-16T16:58:07.252Z,5.13
2022-11-16T17:00:34.662Z,5.03
2022-11-16T17:03:02.189Z,4.40
2022-11-16T17:05:30.686Z,3.50
2022-11-16T17:07:57.902Z,4.70
2022-11-16T17:10:25.254Z,4.15
2022-11-16T17:12:56.262Z,3.75
2022-11-16T17:15:24.025Z,5.55
2022-11-16T17:17:51.303Z,3.55
2022-11-16T17:20:18.812Z,4.70
2022-11-16T17:22:46.341Z,4.40
2022-11-16T17:25:14.899Z,3.92
2022-11-16T17:27:42.147Z,4.10
2022-11-16T17:30:10.125Z,4.38
2022-11-16T17:32:37.573Z,4.72
2022-11-16T17:35:05.307Z,3.97
2022-11-16T17:37:32.643Z,3.58
2022-11-16T17:39:59.885Z,5.60
2022-11-16T17:42:27.249Z,5.05
2022-11-16T17:44:55.212Z,4.32
2022-11-16T17:47:22.429Z,4.90
2022-11-16T17:49:49.745Z,3.55
2022-11-16T17:52:17.150Z,4.13
2022-11-16T17:54:44.366Z,3.25
2022-11-16T17:57:11.785Z,5.47
2022-11-16T17:59:39.135Z,3.38
2022-11-16T18:02:06.981Z,3.53
2022-11-16T18:04:34.228Z,3.33
2022-11-16T18:07:01.587Z,2.63
2022-11-16T18:09:29.144Z,3.42
2022-11-16T18:11:56.456Z,3.42
2022-11-16T18:14:23.915Z,3.40
2022-11-16T18:16:51.247Z,3.63
2022-11-16T18:19:19.597Z,4.38
2022-11-16T18:21:47.939Z,3.60
2022-11-16T18:24:16.031Z,3.83
2022-11-16T18:26:43.289Z,4.00
2022-11-16T18:29:12.743Z,4.05
2022-11-16T18:31:40.117Z,3.85
2022-11-16T18:34:07.567Z,3.47
2022-11-16T18:36:35.008Z,3.33
2022-11-16T18:39:02.401Z,2.58
2022-11-16T18:41:30.185Z,3.28
2022-11-16T18:44:01.622Z,2.92
2022-11-16T18:46:32.845Z,2.53
2022-11-16T18:49:00.518Z,2.08
2022-11-16T18:51:28.821Z,2.58
2022-11-16T18:53:56.472Z,2.13
2022-11-16T18:56:24.746Z,3.00
2022-11-16T18:58:53.174Z,3.13
2022-11-16T19:01:23.656Z,2.20
2022-11-16T19:03:52.380Z,2.45
2022-11-16T19:06:19.996Z,2.65
2022-11-16T19:08:54.973Z,2.15
2022-11-16T19:11:23.975Z,2.30
2022-11-16T19:13:56.958Z,2.22
2022-11-16T19:16:24.987Z,2.13
2022-11-16T19:18:52.790Z,2.50
2022-11-16T19:21:21.865Z,4.10
2022-11-16T19:23:52.088Z,1.42
2022-11-16T19:26:22.202Z,2.47
2022-11-16T19:28:50.687Z,2.10
2022-11-16T19:31:26.568Z,2.47
2022-11-16T19:33:58.755Z,1.98
2022-11-16T19:36:27.348Z,2.17
2022-11-16T19:38:54.947Z,2.17
2022-11-16T19:41:22.818Z,2.03
2022-11-16T19:43:58.970Z,2.28
2022-11-16T19:46:30.619Z,1.60
2022-11-16T19:48:59.124Z,2.20
2022-11-16T19:51:28.541Z,2.67
2022-11-16T19:53:56.620Z,1.65
2022-11-16T19:56:24.560Z,2.03
2022-11-16T19:58:52.577Z,2.05
2022-11-16T20:01:26.150Z,2.30
2022-11-16T20:03:55.165Z,2.10
2022-11-16T20:06:31.093Z,2.17
2022-11-16T20:09:01.085Z,1.48
2022-11-16T20:11:31.162Z,2.22
2022-11-16T20:13:59.125Z,2.95
2022-11-16T20:16:29.893Z,2.47
2022-11-16T20:18:59.221Z,2.95
2022-11-16T20:21:35.380Z,1.58
2022-11-16T20:24:06.841Z,2.08
2022-11-16T20:26:36.505Z,1.63
2022-11-16T20:29:03.999Z,1.73
2022-11-16T20:31:36.005Z,1.88
2022-11-16T20:34:06.002Z,1.63
2022-11-16T20:36:33.593Z,1.70
2022-11-16T20:39:01.156Z,2.17
2022-11-16T20:41:30.244Z,2.53
2022-11-16T20:43:59.853Z,1.85
2022-11-16T20:46:32.675Z,1.77
2022-11-16T20:49:01.780Z,1.65
2022-11-16T20:51:30.304Z,1.70
2022-11-16T20:53:58.335Z,1.70
2022-11-16T20:56:25.968Z,1.30
2022-11-16T20:58:53.323Z,3.03
2022-11-16T21:01:31.439Z,1.85
2022-11-16T21:04:01.776Z,1.20
2022-11-16T21:06:29.549Z,1.00
2022-11-16T21:08:57.632Z,1.25
2022-11-16T21:11:30.620Z,1.25
2022-11-16T21:14:16.087Z,0.93
2022-11-16T21:16:43.984Z,0.90
2022-11-16T21:19:12.043Z,1.30
2022-11-16T21:21:40.788Z,1.73
2022-11-16T21:24:09.360Z,1.20
2022-11-16T21:26:37.521Z,1.60
2022-11-16T21:29:05.539Z,1.20
2022-11-16T21:31:35.493Z,1.63
2022-11-16T21:34:07.359Z,1.20
2022-11-16T21:36:36.127Z,2.15
2022-11-16T21:39:03.603Z,2.30
2022-11-16T21:41:31.757Z,1.83
2022-11-16T21:44:01.792Z,1.48
2022-11-16T21:46:29.217Z,1.58
2022-11-16T21:48:57.876Z,2.17
2022-11-16T21:51:27.126Z,1.88
2022-11-16T21:53:55.278Z,2.50
2022-11-16T21:56:24.497Z,2.10
2022-11-16T21:58:53.327Z,2.25
2022-11-16T22:01:21.462Z,2.53
2022-11-16T22:04:09.037Z,2.00
2022-11-16T22:06:55.022Z,1.73
2022-11-16T22:09:22.408Z,3.58
2022-11-16T22:11:49.798Z,3.50
2022-11-16T22:14:17.061Z,2.90
2022-11-16T22:16:44.390Z,2.88
2022-11-16T22:19:11.715Z,3.30
2022-11-16T22:21:39.166Z,3.20
2022-11-16T22:24:06.953Z,2.20
2022-11-16T22:26:34.341Z,3.00
2022-11-16T22:29:02.175Z,1.98
2022-11-16T22:31:29.292Z,2.70
2022-11-16T22:33:56.568Z,3.25
2022-11-16T22:36:23.790Z,2.67
2022-11-16T22:38:51.226Z,3.05
2022-11-16T22:41:18.649Z,3.00
2022-11-16T22:43:45.966Z,4.10
2022-11-16T22:46:13.188Z,4.88
2022-11-16T22:48:41.151Z,4.07
2022-11-16T22:51:19.404Z,4.18
2022-11-16T22:53:46.780Z,6.63
2022-11-16T22:56:14.350Z,5.93
2022-11-16T22:58:41.637Z,6.20
2022-11-16T23:01:09.639Z,5.25
2022-11-16T23:03:38.015Z,6.25
2022-11-16T23:06:06.610Z,6.22
2022-11-16T23:08:34.647Z,6.53
2022-11-16T23:11:25.826Z,6.90
2022-11-16T23:14:12.886Z,6.32
2022-11-16T23:16:41.182Z,8.48
2022-11-16T23:19:29.133Z,8.40
2022-11-16T23:22:15.881Z,5.97
2022-11-16T23:25:02.020Z,9.20
2022-11-16T23:28:10.736Z,7.45
2022-11-16T23:30:39.820Z,7.47
2022-11-16T23:33:07.855Z,8.23
2022-11-16T23:35:38.453Z,6.78
2022-11-16T23:38:07.280Z,6.53
2022-11-16T23:40:39.805Z,8.05
2022-11-16T23:43:28.234Z,7.10
2022-11-16T23:45:55.682Z,8.50
2022-11-16T23:48:23.042Z,7.47
2022-11-16T23:50:50.998Z,5.43
2022-11-16T23:53:18.258Z,7.03
2022-11-16T23:55:45.567Z,8.63
2022-11-16T23:58:14.921Z,6.30
